createdAt,value
2023-04-17T00:00:00.523Z,116943.30
2023-04-17T00:01:03.296Z,116943.30
2023-04-17T00:02:06.211Z,116943.30
2023-04-17T00:03:09.261Z,116943.30
2023-04-17T00:04:15.613Z,116943.30
2023-04-17T00:05:18.287Z,116943.30
2023-04-17T00:06:21.164Z,116943.30
2023-04-17T00:07:23.717Z,116943.30
2023-04-17T00:08:26.283Z,114988.00
2023-04-17T00:09:29.058Z,116943.30
2023-04-17T00:10:31.727Z,116943.30
2023-04-17T00:11:35.115Z,116943.30
2023-04-17T00:12:37.783Z,116943.30
2023-04-17T00:13:40.471Z,116943.30
2023-04-17T00:14:43.225Z,116943.30
2023-04-17T00:15:46.201Z,116943.30
2023-04-17T00:16:49.355Z,116943.30
2023-04-17T00:17:52.292Z,116943.30
2023-04-17T00:18:54.939Z,116943.30
2023-04-17T00:19:57.757Z,116943.30
2023-04-17T00:21:00.711Z,116943.30
2023-04-17T00:22:04.480Z,116943.30
2023-04-17T00:23:07.043Z,116943.30
2023-04-17T00:24:09.918Z,116943.30
2023-04-17T00:25:12.587Z,116943.30
2023-04-17T00:26:15.286Z,116943.30
2023-04-17T00:27:18.435Z,116943.30
2023-04-17T00:28:21.233Z,116943.30
2023-04-17T00:29:24.191Z,116943.30
2023-04-17T00:30:27.065Z,116943.30
2023-04-17T00:31:30.159Z,116943.30
2023-04-17T00:32:33.027Z,116943.30
2023-04-17T00:33:35.698Z,116943.30
2023-04-17T00:34:38.253Z,116943.30
2023-04-17T00:35:40.930Z,116943.30
2023-04-17T00:36:43.592Z,116943.30
2023-04-17T00:37:46.785Z,116943.30
2023-04-17T00:38:49.449Z,116943.30
2023-04-17T00:39:52.217Z,116943.30
2023-04-17T00:40:55.169Z,116943.30
2023-04-17T00:41:58.069Z,116943.30
2023-04-17T00:43:01.306Z,116943.30
2023-04-17T00:44:04.229Z,116943.30
2023-04-17T00:45:07.002Z,116943.30
2023-04-17T00:46:09.808Z,116943.30
2023-04-17T00:47:12.648Z,116943.30
2023-04-17T00:48:15.651Z,116943.30
2023-04-17T00:49:18.316Z,116943.30
2023-04-17T00:50:21.168Z,116943.30
2023-04-17T00:51:23.954Z,116943.30
2023-04-17T00:52:26.641Z,116942.28
2023-04-17T00:53:29.386Z,113815.89
2023-04-17T00:54:32.068Z,112774.28
2023-04-17T00:55:34.837Z,108220.42
2023-04-17T00:56:37.510Z,114076.33
2023-04-17T00:57:40.067Z,116290.75
2023-04-17T00:58:42.856Z,116942.28
2023-04-17T00:59:45.917Z,116943.30
2023-04-17T01:00:48.781Z,116943.30
2023-04-17T01:01:51.398Z,116943.30
2023-04-17T01:02:54.306Z,116943.30
2023-04-17T01:03:57.158Z,116943.30
2023-04-17T01:05:00.213Z,116943.30
2023-04-17T01:06:02.859Z,116943.30
2023-04-17T01:07:05.854Z,116943.30
2023-04-17T01:08:08.517Z,116943.30
2023-04-17T01:09:11.604Z,116943.30
2023-04-17T01:10:14.461Z,116943.30
2023-04-17T01:11:17.440Z,116943.30
2023-04-17T01:12:20.201Z,116943.30
2023-04-17T01:13:23.230Z,116943.30
2023-04-17T01:14:25.950Z,116943.30
2023-04-17T01:15:28.931Z,116943.30
2023-04-17T01:16:31.977Z,116943.30
2023-04-17T01:17:35.170Z,116943.30
2023-04-17T01:18:37.970Z,116943.30
2023-04-17T01:19:40.648Z,116943.30
2023-04-17T01:20:43.201Z,116943.30
2023-04-17T01:21:45.870Z,116943.30
2023-04-17T01:22:48.749Z,116943.30
2023-04-17T01:23:51.524Z,116943.30
2023-04-17T01:24:54.714Z,116943.30
2023-04-17T01:25:57.673Z,116943.30
2023-04-17T01:27:00.343Z,116943.30
2023-04-17T01:28:03.123Z,116943.30
2023-04-17T01:29:05.996Z,116943.30
2023-04-17T01:30:08.928Z,116943.30
2023-04-17T01:31:11.685Z,116943.30
2023-04-17T01:32:14.520Z,116943.30
2023-04-17T01:33:17.082Z,116943.30
2023-04-17T01:34:19.854Z,116943.30
2023-04-17T01:35:22.944Z,116943.30
2023-04-17T01:36:25.599Z,116943.30
2023-04-17T01:37:28.276Z,116943.30
2023-04-17T01:38:30.948Z,116943.30
2023-04-17T01:39:33.513Z,116943.30
2023-04-17T01:40:36.726Z,116943.30
2023-04-17T01:41:39.268Z,116943.30
2023-04-17T01:42:42.030Z,116943.30
2023-04-17T01:43:45.022Z,116943.30
2023-04-17T01:44:47.782Z,116943.30
2023-04-17T01:45:51.009Z,116943.30
2023-04-17T01:46:53.947Z,116943.30
2023-04-17T01:47:56.964Z,116943.30
2023-04-17T01:48:59.791Z,116943.30
2023-04-17T01:50:02.677Z,116943.30
2023-04-17T01:51:05.650Z,116943.30
2023-04-17T01:52:08.833Z,116943.30
2023-04-17T01:53:11.695Z,116943.30
2023-04-17T01:54:14.676Z,116943.30
2023-04-17T01:55:17.450Z,116943.30
2023-04-17T01:56:20.227Z,116943.30
2023-04-17T01:57:23.116Z,116943.30
2023-04-17T01:58:25.666Z,116943.30
2023-04-17T01:59:28.434Z,116943.30
2023-04-17T02:00:31.110Z,116943.30
2023-04-17T02:01:40.307Z,116943.30
2023-04-17T02:02:43.385Z,116943.30
2023-04-17T02:03:46.709Z,116943.30
2023-04-17T02:04:49.589Z,116943.30
2023-04-17T02:05:54.818Z,116943.30
2023-04-17T02:06:57.674Z,116943.30
2023-04-17T02:08:00.448Z,116943.30
2023-04-17T02:09:03.425Z,116943.30
2023-04-17T02:10:06.099Z,116943.30
2023-04-17T02:11:11.853Z,116943.30
2023-04-17T02:12:14.606Z,116943.30
2023-04-17T02:13:18.410Z,116943.30
2023-04-17T02:14:21.085Z,116943.30
2023-04-17T02:15:23.740Z,116943.30
2023-04-17T02:16:26.506Z,116943.30
2023-04-17T02:17:29.148Z,116943.30
2023-04-17T02:18:31.762Z,116943.30
2023-04-17T02:19:34.832Z,116943.30
2023-04-17T02:20:37.505Z,116943.30
2023-04-17T02:21:40.178Z,116943.30
2023-04-17T02:22:43.351Z,116943.30
2023-04-17T02:23:45.715Z,116943.30
2023-04-17T02:24:48.488Z,116943.30
2023-04-17T02:25:51.152Z,116943.30
2023-04-17T02:26:53.832Z,116943.30
2023-04-17T02:27:56.708Z,116943.30
2023-04-17T02:28:59.478Z,116943.30
2023-04-17T02:30:02.102Z,116943.30
2023-04-17T02:31:04.738Z,116943.30
2023-04-17T02:32:07.272Z,116943.30
2023-04-17T02:33:10.152Z,116943.30
2023-04-17T02:34:13.039Z,116943.30
2023-04-17T02:35:15.704Z,116943.30
2023-04-17T02:36:18.263Z,116943.30
2023-04-17T02:37:20.941Z,116943.30
2023-04-17T02:38:23.600Z,116943.30
2023-04-17T02:39:26.275Z,116943.30
2023-04-17T02:40:28.950Z,116943.30
2023-04-17T02:41:31.516Z,116943.30
2023-04-17T02:42:34.086Z,116943.30
2023-04-17T02:43:36.852Z,116943.30
2023-04-17T02:44:39.521Z,116943.30
2023-04-17T02:45:42.192Z,116943.30
2023-04-17T02:46:44.796Z,116943.30
2023-04-17T02:47:47.601Z,116943.30
2023-04-17T02:48:50.205Z,116943.30
2023-04-17T02:49:52.868Z,116943.30
2023-04-17T02:50:55.859Z,116943.30
2023-04-17T02:51:58.632Z,116943.30
2023-04-17T02:53:01.399Z,116943.30
2023-04-17T02:54:04.389Z,116943.30
2023-04-17T02:55:07.274Z,116943.30
2023-04-17T02:56:09.921Z,116943.30
2023-04-17T02:57:12.684Z,116943.30
2023-04-17T02:58:15.569Z,116943.30
2023-04-17T02:59:18.650Z,116943.30
2023-04-17T03:00:21.517Z,116943.30
2023-04-17T03:01:24.154Z,116943.30
2023-04-17T03:02:26.986Z,116943.30
2023-04-17T03:03:30.128Z,116943.30
2023-04-17T03:04:33.426Z,116943.30
2023-04-17T03:05:36.417Z,116943.30
2023-04-17T03:06:39.068Z,116943.30
2023-04-17T03:07:41.545Z,116943.30
2023-04-17T03:08:44.004Z,116943.30
2023-04-17T03:09:47.126Z,116943.30
2023-04-17T03:10:49.855Z,116943.30
2023-04-17T03:11:52.525Z,116943.30
2023-04-17T03:12:55.206Z,116943.30
2023-04-17T03:13:57.783Z,116943.30
2023-04-17T03:15:00.553Z,116943.30
2023-04-17T03:16:03.364Z,116943.30
2023-04-17T03:17:05.977Z,116943.30
2023-04-17T03:18:08.900Z,116943.30
2023-04-17T03:19:11.951Z,116943.30
2023-04-17T03:20:15.221Z,116943.30
2023-04-17T03:21:18.204Z,116943.30
2023-04-17T03:22:24.161Z,116943.30
2023-04-17T03:23:27.024Z,116943.30
2023-04-17T03:24:29.592Z,116943.30
2023-04-17T03:25:32.455Z,116943.30
2023-04-17T03:26:35.124Z,116943.30
2023-04-17T03:27:37.798Z,116943.30
2023-04-17T03:28:40.364Z,116943.30
2023-04-17T03:29:42.934Z,116943.30
2023-04-17T03:30:45.703Z,116943.30
2023-04-17T03:31:48.545Z,116943.30
2023-04-17T03:32:51.293Z,116943.30
2023-04-17T03:33:54.334Z,116943.30
2023-04-17T03:34:57.211Z,116943.30
2023-04-17T03:36:00.178Z,116943.30
2023-04-17T03:37:03.255Z,116943.30
2023-04-17T03:38:06.035Z,116943.30
2023-04-17T03:39:08.888Z,116943.30
2023-04-17T03:40:11.683Z,116943.30
2023-04-17T03:41:14.754Z,116943.30
2023-04-17T03:42:17.653Z,116943.30
2023-04-17T03:43:20.511Z,116943.30
2023-04-17T03:44:23.395Z,116943.30
2023-04-17T03:45:26.256Z,116943.30
2023-04-17T03:46:29.246Z,116943.30
2023-04-17T03:47:32.272Z,116943.30
2023-04-17T03:48:35.294Z,116943.30
2023-04-17T03:49:38.160Z,116943.30
2023-04-17T03:50:41.041Z,116943.30
2023-04-17T03:51:44.062Z,116943.30
2023-04-17T03:52:46.891Z,116943.30
2023-04-17T03:53:49.672Z,116943.30
2023-04-17T03:54:52.749Z,116943.30
2023-04-17T03:55:55.617Z,116943.30
2023-04-17T03:56:58.486Z,116943.30
2023-04-17T03:58:01.168Z,116943.30
2023-04-17T03:59:03.825Z,116943.30
2023-04-17T04:00:06.613Z,116943.30
2023-04-17T04:01:09.263Z,116943.30
2023-04-17T04:02:12.015Z,116943.30
2023-04-17T04:03:14.901Z,116943.30
2023-04-17T04:04:18.078Z,116943.30
2023-04-17T04:05:21.064Z,116943.30
2023-04-17T04:06:23.949Z,116943.30
2023-04-17T04:07:27.449Z,116943.30
2023-04-17T04:08:30.309Z,116943.30
2023-04-17T04:09:33.181Z,116943.30
2023-04-17T04:10:35.953Z,116943.30
2023-04-17T04:11:38.830Z,116943.30
2023-04-17T04:12:42.212Z,116943.30
2023-04-17T04:13:44.986Z,116943.30
2023-04-17T04:14:47.966Z,116943.30
2023-04-17T04:15:50.974Z,116943.30
2023-04-17T04:16:53.820Z,116943.30
2023-04-17T04:17:57.051Z,116943.30
2023-04-17T04:18:59.869Z,116943.30
2023-04-17T04:20:02.848Z,116943.30
2023-04-17T04:21:05.730Z,116943.30
2023-04-17T04:22:08.702Z,116943.30
2023-04-17T04:23:11.680Z,116943.30
2023-04-17T04:24:14.550Z,116943.30
2023-04-17T04:25:17.630Z,116943.30
2023-04-17T04:26:20.402Z,116943.30
2023-04-17T04:27:23.283Z,116943.30
2023-04-17T04:28:26.257Z,116943.30
2023-04-17T04:29:29.043Z,116943.30
2023-04-17T04:30:31.797Z,116943.30
2023-04-17T04:31:35.155Z,116943.30
2023-04-17T04:32:41.254Z,116943.30
2023-04-17T04:33:45.345Z,116943.30
2023-04-17T04:34:48.223Z,116943.30
2023-04-17T04:35:50.786Z,116943.30
2023-04-17T04:36:53.448Z,116943.30
2023-04-17T04:37:56.125Z,116943.30
2023-04-17T04:38:59.203Z,116943.30
2023-04-17T04:40:01.829Z,116943.30
2023-04-17T04:41:04.564Z,116943.30
2023-04-17T04:42:07.108Z,116943.30
2023-04-17T04:43:09.778Z,116943.30
2023-04-17T04:44:12.668Z,116943.30
2023-04-17T04:45:15.221Z,116943.30
2023-04-17T04:46:17.930Z,116943.30
2023-04-17T04:47:20.680Z,116943.30
2023-04-17T04:48:23.232Z,116943.30
2023-04-17T04:49:26.207Z,116943.30
2023-04-17T04:50:28.783Z,116943.30
2023-04-17T04:51:31.561Z,116943.30
2023-04-17T04:52:34.111Z,116943.30
2023-04-17T04:53:36.690Z,116943.30
2023-04-17T04:54:39.680Z,116943.30
2023-04-17T04:55:42.440Z,116943.30
2023-04-17T04:56:45.204Z,116943.30
2023-04-17T04:57:48.186Z,116943.30
2023-04-17T04:58:51.059Z,116943.30
2023-04-17T04:59:54.345Z,116943.30
2023-04-17T05:00:57.234Z,116943.30
2023-04-17T05:02:00.203Z,116943.30
2023-04-17T05:03:03.526Z,116943.30
2023-04-17T05:04:06.760Z,116943.30
2023-04-17T05:05:10.044Z,116290.75
2023-04-17T05:06:13.261Z,115769.59
2023-04-17T05:07:16.102Z,114206.55
2023-04-17T05:08:19.182Z,111472.66
2023-04-17T05:09:22.059Z,112644.11
2023-04-17T05:10:24.725Z,116943.30
2023-04-17T05:11:27.401Z,116943.30
2023-04-17T05:12:30.172Z,116943.30
2023-04-17T05:13:32.843Z,116943.30
2023-04-17T05:14:35.412Z,116943.30
2023-04-17T05:15:38.075Z,116943.30
2023-04-17T05:16:40.920Z,116943.30
2023-04-17T05:17:43.773Z,116943.30
2023-04-17T05:18:46.609Z,116943.30
2023-04-17T05:19:57.672Z,116943.30
2023-04-17T05:21:00.341Z,116943.30
2023-04-17T05:22:03.211Z,116943.30
2023-04-17T05:23:06.186Z,116943.30
2023-04-17T05:24:09.067Z,116943.30
2023-04-17T05:25:11.946Z,116943.30
2023-04-17T05:26:14.818Z,116943.30
2023-04-17T05:27:17.809Z,116943.30
2023-04-17T05:28:20.575Z,116943.30
2023-04-17T05:29:23.432Z,116943.30
2023-04-17T05:30:26.307Z,116943.30
2023-04-17T05:31:29.470Z,116943.30
2023-04-17T05:32:32.415Z,116943.30
2023-04-17T05:33:35.239Z,116943.30
2023-04-17T05:34:38.115Z,116943.30
2023-04-17T05:35:40.990Z,116943.30
2023-04-17T05:36:43.872Z,116943.30
2023-04-17T05:37:46.740Z,116943.30
2023-04-17T05:38:49.614Z,116943.30
2023-04-17T05:39:52.393Z,116943.30
2023-04-17T05:40:55.260Z,116943.30
2023-04-17T05:41:58.234Z,116943.30
2023-04-17T05:43:01.113Z,116943.30
2023-04-17T05:44:03.986Z,116943.30
2023-04-17T05:45:06.961Z,116943.30
2023-04-17T05:46:09.963Z,116943.30
2023-04-17T05:47:12.845Z,116943.30
2023-04-17T05:48:15.688Z,116943.30
2023-04-17T05:49:18.578Z,116943.30
2023-04-17T05:50:21.337Z,116943.30
2023-04-17T05:51:24.219Z,116943.30
2023-04-17T05:52:27.095Z,116943.30
2023-04-17T05:53:33.036Z,116943.30
2023-04-17T05:54:36.007Z,116943.30
2023-04-17T05:55:38.680Z,116943.30
2023-04-17T05:56:41.245Z,116943.30
2023-04-17T05:57:43.919Z,116943.30
2023-04-17T05:58:46.594Z,116943.30
2023-04-17T05:59:49.153Z,116943.30
2023-04-17T06:00:51.929Z,116943.30
2023-04-17T06:01:54.547Z,116943.30
2023-04-17T06:02:57.487Z,116943.30
2023-04-17T06:04:02.118Z,116943.30
2023-04-17T06:05:05.133Z,116943.30
2023-04-17T06:06:08.041Z,116943.30
2023-04-17T06:07:10.916Z,116943.30
2023-04-17T06:08:13.800Z,116943.30
2023-04-17T06:09:16.875Z,116943.30
2023-04-17T06:10:19.644Z,116943.30
2023-04-17T06:11:22.422Z,116943.30
2023-04-17T06:12:25.289Z,116943.30
2023-04-17T06:13:28.164Z,116943.30
2023-04-17T06:14:31.244Z,116943.30
2023-04-17T06:15:34.117Z,116943.30
2023-04-17T06:16:37.019Z,116943.30
2023-04-17T06:17:40.019Z,116943.30
2023-04-17T06:18:42.852Z,116943.30
2023-04-17T06:19:45.824Z,116943.30
2023-04-17T06:20:48.697Z,116943.30
2023-04-17T06:21:51.273Z,116943.30
2023-04-17T06:22:54.146Z,116943.30
2023-04-17T06:23:57.022Z,116943.30
2023-04-17T06:24:59.795Z,116943.30
2023-04-17T06:26:02.768Z,116943.30
2023-04-17T06:27:05.535Z,116943.30
2023-04-17T06:28:08.417Z,116943.30
2023-04-17T06:29:11.417Z,116943.30
2023-04-17T06:30:14.471Z,116943.30
2023-04-17T06:31:17.515Z,116943.30
2023-04-17T06:32:20.450Z,116943.30
2023-04-17T06:33:26.045Z,116943.30
2023-04-17T06:34:27.706Z,116943.30
2023-04-17T06:35:30.583Z,116943.30
2023-04-17T06:36:33.451Z,116943.30
2023-04-17T06:37:41.978Z,116943.30
2023-04-17T06:38:45.253Z,116943.30
2023-04-17T06:39:48.117Z,116943.30
2023-04-17T06:40:52.562Z,116943.30
2023-04-17T06:41:55.508Z,116943.30
2023-04-17T06:42:58.079Z,116943.30
2023-04-17T06:44:00.776Z,116943.30
2023-04-17T06:45:03.416Z,116943.30
2023-04-17T06:46:06.145Z,116943.30
2023-04-17T06:47:08.857Z,116943.30
2023-04-17T06:48:11.529Z,116943.30
2023-04-17T06:49:14.607Z,116943.30
2023-04-17T06:50:17.585Z,116943.30
2023-04-17T06:51:20.675Z,116943.30
2023-04-17T06:52:23.542Z,116943.30
2023-04-17T06:53:26.410Z,116943.30
2023-04-17T06:54:29.284Z,116943.30
2023-04-17T06:55:32.157Z,116943.30
2023-04-17T06:56:34.934Z,116943.30
2023-04-17T06:57:37.809Z,116943.30
2023-04-17T06:58:40.682Z,116943.30
2023-04-17T06:59:43.554Z,116943.30
2023-04-17T07:00:46.435Z,116943.30
2023-04-17T07:01:49.341Z,116943.30
2023-04-17T07:02:52.254Z,116943.30
2023-04-17T07:03:55.162Z,116943.30
2023-04-17T07:04:58.197Z,116943.30
2023-04-17T07:06:01.006Z,116943.30
2023-04-17T07:07:03.889Z,116943.30
2023-04-17T07:08:06.654Z,116943.30
2023-04-17T07:09:09.554Z,116943.30
2023-04-17T07:10:12.770Z,116943.30
2023-04-17T07:11:15.687Z,116943.30
2023-04-17T07:12:18.565Z,116943.30
2023-04-17T07:13:21.437Z,116943.30
2023-04-17T07:14:24.415Z,116943.30
2023-04-17T07:15:27.219Z,116943.30
2023-04-17T07:16:30.095Z,116943.30
2023-04-17T07:17:32.982Z,116943.30
2023-04-17T07:18:36.014Z,116943.30
2023-04-17T07:19:39.197Z,116943.30
2023-04-17T07:20:41.964Z,116943.30
2023-04-17T07:21:44.788Z,116943.30
2023-04-17T07:22:47.511Z,116943.30
2023-04-17T07:23:50.181Z,116943.30
2023-04-17T07:24:52.855Z,116943.30
2023-04-17T07:25:55.520Z,116943.30
2023-04-17T07:26:58.092Z,116943.30
2023-04-17T07:28:04.410Z,116943.30
2023-04-17T07:29:06.913Z,116943.30
2023-04-17T07:30:09.582Z,116943.30
2023-04-17T07:31:12.575Z,116943.30
2023-04-17T07:32:15.341Z,116943.30
2023-04-17T07:33:18.422Z,116943.30
2023-04-17T07:34:21.290Z,116943.30
2023-04-17T07:35:24.191Z,116943.30
2023-04-17T07:36:26.877Z,116943.30
2023-04-17T07:37:29.600Z,116943.30
2023-04-17T07:38:32.592Z,116943.30
2023-04-17T07:39:35.451Z,116943.30
2023-04-17T07:40:38.561Z,116943.30
2023-04-17T07:41:41.416Z,116943.30
2023-04-17T07:42:44.280Z,116943.30
2023-04-17T07:43:47.260Z,116943.30
2023-04-17T07:44:51.577Z,116943.30
2023-04-17T07:45:54.349Z,116943.30
2023-04-17T07:46:57.265Z,116943.30
2023-04-17T07:48:00.177Z,116943.30
2023-04-17T07:49:03.109Z,116943.30
2023-04-17T07:50:05.956Z,116943.30
2023-04-17T07:51:08.747Z,116943.30
2023-04-17T07:52:11.497Z,116943.30
2023-04-17T07:53:14.356Z,116943.30
2023-04-17T07:54:17.240Z,116943.30
2023-04-17T07:55:20.114Z,116943.30
2023-04-17T07:56:22.991Z,116943.30
2023-04-17T07:57:25.773Z,116943.30
2023-04-17T07:58:28.534Z,116943.30
2023-04-17T07:59:31.519Z,116943.30
2023-04-17T08:00:34.382Z,116943.30
2023-04-17T08:01:37.466Z,116943.30
2023-04-17T08:02:40.399Z,116943.30
2023-04-17T08:03:43.616Z,116943.30
2023-04-17T08:04:47.024Z,116943.30
2023-04-17T08:05:52.947Z,116943.30
2023-04-17T08:06:55.832Z,116943.30
2023-04-17T08:07:58.599Z,116943.30
2023-04-17T08:09:01.263Z,116943.30
2023-04-17T08:10:03.935Z,116943.30
2023-04-17T08:11:06.507Z,116943.30
2023-04-17T08:12:09.285Z,116943.30
2023-04-17T08:13:11.839Z,116943.30
2023-04-17T08:14:19.946Z,116943.30
2023-04-17T08:15:22.502Z,116943.30
2023-04-17T08:16:25.191Z,116943.30
2023-04-17T08:17:27.785Z,116943.30
2023-04-17T08:18:30.443Z,116943.30
2023-04-17T08:19:33.091Z,116943.30
2023-04-17T08:20:35.858Z,116943.30
2023-04-17T08:21:38.729Z,116943.30
2023-04-17T08:22:41.818Z,116943.30
2023-04-17T08:23:44.481Z,116943.30
2023-04-17T08:24:47.151Z,116943.30
2023-04-17T08:25:49.818Z,116943.30
2023-04-17T08:26:52.593Z,116943.30
2023-04-17T08:27:55.173Z,116943.30
2023-04-17T08:28:57.845Z,116943.30
2023-04-17T08:30:00.406Z,116943.30
2023-04-17T08:31:03.104Z,116943.30
2023-04-17T08:32:14.744Z,116943.30
2023-04-17T08:33:13.514Z,116943.30
2023-04-17T08:34:16.196Z,116943.30
2023-04-17T08:35:18.975Z,116943.30
2023-04-17T08:36:21.799Z,116943.30
2023-04-17T08:37:24.410Z,116943.30
2023-04-17T08:38:27.200Z,116943.30
2023-04-17T08:39:29.857Z,116943.30
2023-04-17T08:40:32.552Z,116943.30
2023-04-17T08:41:35.193Z,116943.30
2023-04-17T08:42:37.866Z,116943.30
2023-04-17T08:43:40.549Z,116943.30
2023-04-17T08:44:43.510Z,116943.30
2023-04-17T08:45:46.439Z,116943.30
2023-04-17T08:46:49.578Z,116943.30
2023-04-17T08:47:52.281Z,116943.30
2023-04-17T08:48:55.113Z,116943.30
2023-04-17T08:49:58.092Z,116943.30
2023-04-17T08:51:00.878Z,116943.30
2023-04-17T08:52:03.533Z,116943.30
2023-04-17T08:53:06.213Z,116943.30
2023-04-17T08:54:08.880Z,116943.30
2023-04-17T08:55:11.649Z,116943.30
2023-04-17T08:56:14.217Z,116943.30
2023-04-17T08:57:16.889Z,116943.30
2023-04-17T08:58:19.558Z,116943.30
2023-04-17T08:59:22.341Z,116943.30
2023-04-17T09:00:25.299Z,116943.30
2023-04-17T09:01:28.322Z,116943.30
2023-04-17T09:02:31.302Z,116943.30
2023-04-17T09:03:34.285Z,116943.30
2023-04-17T09:04:37.433Z,116943.30
2023-04-17T09:05:40.910Z,116943.30
2023-04-17T09:06:43.676Z,116943.30
2023-04-17T09:07:46.649Z,116943.30
2023-04-17T09:08:49.523Z,116943.30
2023-04-17T09:09:52.298Z,116943.30
2023-04-17T09:10:55.383Z,116943.30
2023-04-17T09:11:58.251Z,116943.30
2023-04-17T09:13:01.141Z,116943.30
2023-04-17T09:14:03.896Z,116943.30
2023-04-17T09:15:06.674Z,116943.30
2023-04-17T09:16:09.605Z,116943.30
2023-04-17T09:17:12.426Z,116943.30
2023-04-17T09:18:15.212Z,116943.30
2023-04-17T09:19:18.167Z,116943.30
2023-04-17T09:20:21.153Z,116943.30
2023-04-17T09:21:24.122Z,116943.30
2023-04-17T09:22:27.009Z,116943.30
2023-04-17T09:23:29.885Z,116943.30
2023-04-17T09:24:32.754Z,116943.30
2023-04-17T09:25:35.619Z,116943.30
2023-04-17T09:26:38.550Z,116943.30
2023-04-17T09:27:41.272Z,116943.30
2023-04-17T09:28:44.265Z,116943.30
2023-04-17T09:29:47.230Z,116943.30
2023-04-17T09:30:50.100Z,116943.30
2023-04-17T09:31:53.037Z,116943.30
2023-04-17T09:32:55.700Z,116943.30
2023-04-17T09:33:58.336Z,116943.30
2023-04-17T09:35:00.882Z,116943.30
2023-04-17T09:36:03.569Z,116943.30
2023-04-17T09:37:06.513Z,116943.30
2023-04-17T09:38:09.307Z,116943.30
2023-04-17T09:39:12.222Z,116943.30
2023-04-17T09:40:15.158Z,116943.30
2023-04-17T09:41:18.141Z,116943.30
2023-04-17T09:42:21.118Z,116943.30
2023-04-17T09:43:24.090Z,116943.30
2023-04-17T09:44:27.173Z,116943.30
2023-04-17T09:45:30.342Z,116943.30
2023-04-17T09:46:33.320Z,116943.30
2023-04-17T09:47:36.425Z,116943.30
2023-04-17T09:48:39.593Z,116943.30
2023-04-17T09:49:42.542Z,116943.30
2023-04-17T09:50:45.331Z,116943.30
2023-04-17T09:51:48.205Z,116943.30
2023-04-17T09:52:51.496Z,116943.30
2023-04-17T09:53:54.368Z,116943.30
2023-04-17T09:54:57.346Z,116943.30
2023-04-17T09:56:00.318Z,116943.30
2023-04-17T09:57:03.198Z,116943.30
2023-04-17T09:58:06.208Z,116943.30
2023-04-17T09:59:09.074Z,116943.30
2023-04-17T10:00:11.932Z,116943.30
2023-04-17T10:01:16.384Z,116943.30
2023-04-17T10:02:19.328Z,116943.30
2023-04-17T10:03:22.473Z,116943.30
2023-04-17T10:04:25.626Z,116943.30
2023-04-17T10:05:28.550Z,116943.30
2023-04-17T10:06:31.413Z,116943.30
2023-04-17T10:07:34.187Z,116943.30
2023-04-17T10:08:37.162Z,116943.30
2023-04-17T10:09:40.066Z,116943.30
2023-04-17T10:10:42.841Z,116943.30
2023-04-17T10:11:45.690Z,116943.30
2023-04-17T10:12:48.257Z,116943.30
2023-04-17T10:13:51.028Z,116943.30
2023-04-17T10:14:53.697Z,116943.30
2023-04-17T10:15:57.624Z,116943.30
2023-04-17T10:17:00.464Z,116943.30
2023-04-17T10:18:03.399Z,116943.30
2023-04-17T10:19:06.627Z,116943.30
2023-04-17T10:20:09.916Z,116943.30
2023-04-17T10:21:12.785Z,116943.30
2023-04-17T10:22:15.850Z,116943.30
2023-04-17T10:23:18.637Z,116943.30
2023-04-17T10:24:21.718Z,116943.30
2023-04-17T10:25:24.504Z,116943.30
2023-04-17T10:26:27.394Z,116943.30
2023-04-17T10:27:30.238Z,116943.30
2023-04-17T10:28:33.585Z,116943.30
2023-04-17T10:29:36.816Z,116943.30
2023-04-17T10:30:40.680Z,116943.30
2023-04-17T10:31:44.456Z,116943.30
2023-04-17T10:32:47.310Z,116943.30
2023-04-17T10:33:50.153Z,116943.30
2023-04-17T10:34:52.832Z,116943.30
2023-04-17T10:35:55.487Z,116943.30
2023-04-17T10:36:58.169Z,116943.30
2023-04-17T10:38:00.828Z,116943.30
2023-04-17T10:39:03.501Z,116943.30
2023-04-17T10:40:06.179Z,116943.30
2023-04-17T10:41:08.885Z,116943.30
2023-04-17T10:42:11.613Z,116943.30
2023-04-17T10:43:14.278Z,116943.30
2023-04-17T10:44:16.852Z,116943.30
2023-04-17T10:45:19.719Z,116943.30
2023-04-17T10:46:22.425Z,116943.30
2023-04-17T10:47:25.098Z,116943.30
2023-04-17T10:48:27.994Z,116943.30
2023-04-17T10:49:30.624Z,116943.30
2023-04-17T10:50:33.380Z,116943.30
2023-04-17T10:51:36.352Z,116943.30
2023-04-17T10:52:44.353Z,116943.30
2023-04-17T10:53:46.920Z,116943.30
2023-04-17T10:54:49.593Z,116943.30
2023-04-17T10:55:52.274Z,116943.30
2023-04-17T10:56:54.929Z,116943.30
2023-04-17T10:57:57.911Z,116943.30
2023-04-17T10:59:00.783Z,116943.30
2023-04-17T11:00:03.555Z,116943.30
2023-04-17T11:01:06.448Z,116943.30
2023-04-17T11:02:09.490Z,116943.30
2023-04-17T11:03:12.561Z,116943.30
2023-04-17T11:04:15.399Z,116943.30
2023-04-17T11:05:18.332Z,116943.30
2023-04-17T11:06:21.511Z,116943.30
2023-04-17T11:07:24.393Z,116943.30
2023-04-17T11:08:27.261Z,116943.30
2023-04-17T11:09:30.171Z,116943.30
2023-04-17T11:10:33.118Z,116943.30
2023-04-17T11:12:40.513Z,116943.30
2023-04-17T11:13:43.391Z,116943.30
2023-04-17T11:14:46.266Z,116943.30
2023-04-17T11:15:49.138Z,116943.30
2023-04-17T11:16:52.379Z,116943.30
2023-04-17T11:17:55.239Z,116943.30
2023-04-17T11:18:57.866Z,116943.30
2023-04-17T11:20:00.437Z,116943.30
2023-04-17T11:21:02.996Z,116943.30
2023-04-17T11:22:05.668Z,116943.30
2023-04-17T11:23:08.339Z,116943.30
2023-04-17T11:24:10.901Z,116943.30
2023-04-17T11:25:13.875Z,116943.30
2023-04-17T11:26:17.776Z,116943.30
2023-04-17T11:27:20.755Z,116943.30
2023-04-17T11:28:23.745Z,116943.30
2023-04-17T11:29:26.612Z,116943.30
2023-04-17T11:30:29.480Z,116943.30
2023-04-17T11:31:32.378Z,116943.30
2023-04-17T11:32:35.501Z,116943.30
2023-04-17T11:33:38.310Z,116943.30
2023-04-17T11:34:41.180Z,116943.30
2023-04-17T11:35:45.086Z,116943.30
2023-04-17T11:36:47.957Z,116943.30
2023-04-17T11:37:53.083Z,116943.30
2023-04-17T11:38:55.955Z,116943.30
2023-04-17T11:39:58.840Z,116943.30
2023-04-17T11:41:01.615Z,116943.30
2023-04-17T11:42:04.379Z,116943.30
2023-04-17T11:43:07.355Z,116943.30
2023-04-17T11:44:10.132Z,116943.30
2023-04-17T11:45:12.899Z,116943.30
2023-04-17T11:46:15.807Z,116943.30
2023-04-17T11:47:18.724Z,116943.30
2023-04-17T11:48:21.727Z,116943.30
2023-04-17T11:49:24.627Z,116943.30
2023-04-17T11:50:27.474Z,116943.30
2023-04-17T11:51:35.888Z,116943.30
2023-04-17T11:52:38.794Z,116943.30
2023-04-17T11:53:41.640Z,116943.30
2023-04-17T11:54:44.397Z,116943.30
2023-04-17T11:55:47.277Z,116943.30
2023-04-17T11:56:50.256Z,116943.30
2023-04-17T11:57:55.894Z,116943.30
2023-04-17T11:58:58.708Z,116943.30